createdAt,value
2018-08-25T00:01:53.012Z,15.22
2018-08-25T00:04:27.670Z,15.21
2018-08-25T00:07:02.333Z,15.18
2018-08-25T00:09:37.021Z,15.15
2018-08-25T00:12:11.857Z,15.12
2018-08-25T00:14:46.379Z,15.13
2018-08-25T00:17:21.358Z,15.07
2018-08-25T00:19:56.072Z,15.08
2018-08-25T00:22:31.009Z,15.12
2018-08-25T00:25:05.629Z,15.05
2018-08-25T00:27:40.712Z,15.03
2018-08-25T00:30:20.661Z,14.91
2018-08-25T00:32:55.364Z,14.94
2018-08-25T00:35:30.785Z,14.95
2018-08-25T00:38:05.432Z,14.91
2018-08-25T00:40:40.044Z,14.89
2018-08-25T00:43:14.757Z,14.93
2018-08-25T00:45:49.585Z,14.90
2018-08-25T00:48:24.156Z,14.87
2018-08-25T00:50:58.784Z,14.80
2018-08-25T00:53:33.421Z,14.93
2018-08-25T00:56:08.440Z,14.96
2018-08-25T00:58:42.905Z,14.93
2018-08-25T01:01:17.901Z,15.00
2018-08-25T01:03:52.395Z,14.82
2018-08-25T01:06:27.144Z,15.03
2018-08-25T01:09:01.661Z,14.94
2018-08-25T01:11:36.293Z,14.96
2018-08-25T01:14:11.509Z,14.87
2018-08-25T01:16:46.146Z,14.92
2018-08-25T01:19:20.681Z,15.00
2018-08-25T01:21:55.425Z,14.77
2018-08-25T01:24:30.130Z,14.91
2018-08-25T01:27:04.839Z,14.90
2018-08-25T01:29:39.460Z,14.88
2018-08-25T01:32:14.093Z,14.94
2018-08-25T01:34:48.838Z,14.88
2018-08-25T01:37:23.732Z,14.87
2018-08-25T01:39:58.288Z,14.85
2018-08-25T01:42:32.908Z,14.94
2018-08-25T01:45:07.496Z,14.82
2018-08-25T01:47:42.081Z,14.91
2018-08-25T01:50:16.600Z,14.85
2018-08-25T01:52:51.253Z,14.93
2018-08-25T01:55:25.879Z,14.90
2018-08-25T01:58:00.757Z,15.06
2018-08-25T02:00:35.508Z,15.03
2018-08-25T02:03:10.108Z,14.94
2018-08-25T02:05:44.610Z,14.85
2018-08-25T02:08:19.162Z,14.91
2018-08-25T02:10:53.725Z,15.00
2018-08-25T02:13:28.216Z,14.96
2018-08-25T02:16:02.900Z,14.93
2018-08-25T02:18:37.345Z,14.97
2018-08-25T02:21:11.957Z,15.00
2018-08-25T02:23:46.684Z,15.07
2018-08-25T02:26:21.688Z,15.10
2018-08-25T02:28:56.355Z,15.04
2018-08-25T02:31:31.049Z,15.02
2018-08-25T02:34:24.280Z,14.98
2018-08-25T02:36:58.801Z,15.18
2018-08-25T02:39:33.604Z,15.20
2018-08-25T02:42:08.125Z,15.13
2018-08-25T02:44:42.654Z,15.18
2018-08-25T02:47:17.264Z,15.17
2018-08-25T02:49:51.934Z,15.15
2018-08-25T02:52:26.517Z,15.20
2018-08-25T02:55:01.022Z,15.17
2018-08-25T02:57:35.565Z,15.10
2018-08-25T03:00:10.056Z,15.16
2018-08-25T03:02:44.767Z,15.26
2018-08-25T03:05:19.552Z,15.28
2018-08-25T03:07:54.153Z,15.29
2018-08-25T03:10:28.771Z,15.17
2018-08-25T03:13:03.406Z,15.05
2018-08-25T03:15:38.025Z,14.82
2018-08-25T03:18:12.621Z,14.47
2018-08-25T03:20:47.276Z,13.74
2018-08-25T03:23:22.164Z,13.48
2018-08-25T03:25:56.753Z,13.12
2018-08-25T03:28:31.295Z,12.73
2018-08-25T03:31:05.933Z,12.65
2018-08-25T03:33:40.948Z,12.47
2018-08-25T03:36:15.580Z,12.43
2018-08-25T03:38:50.189Z,12.46
2018-08-25T03:41:24.848Z,12.52
2018-08-25T03:43:59.379Z,12.46
2018-08-25T03:46:34.134Z,12.55
2018-08-25T03:49:09.096Z,12.54
2018-08-25T03:51:43.577Z,12.59
2018-08-25T03:54:18.297Z,12.62
2018-08-25T03:56:53.007Z,12.58
2018-08-25T03:59:27.624Z,12.50
2018-08-25T04:02:02.144Z,12.57
2018-08-25T04:04:36.653Z,12.62
2018-08-25T04:07:11.353Z,12.50
2018-08-25T04:09:45.857Z,12.31
2018-08-25T04:12:20.523Z,12.47
2018-08-25T04:14:55.125Z,12.53
2018-08-25T04:17:29.820Z,12.49
2018-08-25T04:20:04.286Z,12.36
2018-08-25T04:22:38.857Z,12.40
2018-08-25T04:25:13.496Z,12.44
2018-08-25T04:27:48.245Z,12.51
2018-08-25T04:30:22.748Z,12.44
2018-08-25T04:32:57.292Z,12.43
2018-08-25T04:35:32.297Z,12.50
2018-08-25T04:38:06.818Z,12.52
2018-08-25T04:40:41.699Z,12.47
2018-08-25T04:43:16.257Z,12.58
2018-08-25T04:45:50.820Z,12.47
2018-08-25T04:48:28.861Z,12.29
2018-08-25T04:51:03.493Z,12.41
2018-08-25T04:53:38.137Z,12.48
2018-08-25T04:56:12.660Z,12.39
2018-08-25T04:58:47.380Z,12.37
2018-08-25T05:01:21.791Z,12.34
2018-08-25T05:03:56.782Z,12.33
2018-08-25T05:06:31.315Z,12.35
2018-08-25T05:09:08.314Z,12.33
2018-08-25T05:11:42.852Z,12.43
2018-08-25T05:14:17.573Z,12.34
2018-08-25T05:16:52.154Z,12.36
2018-08-25T05:19:26.644Z,12.32
2018-08-25T05:22:01.404Z,12.35
2018-08-25T05:24:36.049Z,12.48
2018-08-25T05:27:10.581Z,12.46
2018-08-25T05:29:45.151Z,12.23
2018-08-25T05:32:19.689Z,12.33
2018-08-25T05:34:54.257Z,12.36
2018-08-25T05:37:28.961Z,12.29
2018-08-25T05:40:03.547Z,12.36
2018-08-25T05:42:38.105Z,12.31
2018-08-25T05:45:12.833Z,12.31
2018-08-25T05:47:47.392Z,12.53
2018-08-25T05:50:22.128Z,12.35
2018-08-25T05:52:56.854Z,12.64
2018-08-25T05:55:31.436Z,12.82
2018-08-25T05:58:06.022Z,12.96
2018-08-25T06:00:40.673Z,12.97
2018-08-25T06:03:15.522Z,12.51
2018-08-25T06:05:50.301Z,12.80
2018-08-25T06:08:24.961Z,12.73
2018-08-25T06:10:59.904Z,12.41
2018-08-25T06:13:34.533Z,12.20
2018-08-25T06:16:08.973Z,12.35
2018-08-25T06:18:43.394Z,12.77
2018-08-25T06:21:18.060Z,12.98
2018-08-25T06:23:52.664Z,12.65
2018-08-25T06:26:27.273Z,12.85
2018-08-25T06:29:02.000Z,12.99
2018-08-25T06:31:36.613Z,12.99
2018-08-25T06:34:11.171Z,12.60
2018-08-25T06:36:45.664Z,12.47
2018-08-25T06:39:20.261Z,12.67
2018-08-25T06:41:54.853Z,12.56
2018-08-25T06:44:29.348Z,12.63
2018-08-25T06:47:04.053Z,12.71
2018-08-25T06:49:38.688Z,12.62
2018-08-25T06:52:13.432Z,12.89
2018-08-25T06:54:47.892Z,12.69
2018-08-25T06:57:22.548Z,12.92
2018-08-25T06:59:57.133Z,12.58
2018-08-25T07:02:31.977Z,12.85
2018-08-25T07:05:06.611Z,13.09
2018-08-25T07:07:41.298Z,13.02
2018-08-25T07:10:15.949Z,13.16
2018-08-25T07:12:50.563Z,13.44
2018-08-25T07:15:25.132Z,13.29
2018-08-25T07:17:59.709Z,13.25
2018-08-25T07:20:34.528Z,13.15
2018-08-25T07:23:09.049Z,12.84
2018-08-25T07:25:43.809Z,13.07
2018-08-25T07:28:18.429Z,13.19
2018-08-25T07:30:52.944Z,13.29
2018-08-25T07:33:27.637Z,13.32
2018-08-25T07:36:02.270Z,13.70
2018-08-25T07:38:37.014Z,13.36
2018-08-25T07:41:11.782Z,13.43
2018-08-25T07:43:46.270Z,13.06
2018-08-25T07:46:21.064Z,13.29
2018-08-25T07:48:55.972Z,13.10
2018-08-25T07:51:30.565Z,13.13
2018-08-25T07:54:07.132Z,13.27
2018-08-25T07:56:48.181Z,13.60
2018-08-25T07:59:22.950Z,13.65
2018-08-25T08:01:57.426Z,13.68
2018-08-25T08:04:31.988Z,14.07
2018-08-25T08:07:06.604Z,14.68
2018-08-25T08:09:44.179Z,15.16
2018-08-25T08:12:32.749Z,15.37
2018-08-25T08:15:13.866Z,15.18
2018-08-25T08:17:48.388Z,15.41
2018-08-25T08:20:23.461Z,15.77
2018-08-25T08:22:58.107Z,15.87
2018-08-25T08:25:32.697Z,16.03
2018-08-25T08:28:07.619Z,15.82
2018-08-25T08:30:42.041Z,15.18
2018-08-25T08:33:16.573Z,14.79
2018-08-25T08:35:51.165Z,14.50
2018-08-25T08:38:25.740Z,14.34
2018-08-25T08:41:00.281Z,14.70
2018-08-25T08:43:34.973Z,14.31
2018-08-25T08:46:09.704Z,14.46
2018-08-25T08:48:44.297Z,15.08
2018-08-25T08:51:18.792Z,15.77
2018-08-25T08:53:53.372Z,16.36
2018-08-25T08:56:27.944Z,16.32
2018-08-25T08:59:02.815Z,15.84
2018-08-25T09:01:37.340Z,16.34
2018-08-25T09:04:12.149Z,16.82
2018-08-25T09:06:46.948Z,16.06
2018-08-25T09:09:21.608Z,15.43
2018-08-25T09:11:56.228Z,15.53
2018-08-25T09:14:30.944Z,15.37
2018-08-25T09:17:05.844Z,15.20
2018-08-25T09:19:40.447Z,15.52
2018-08-25T09:22:14.964Z,16.28
2018-08-25T09:24:49.484Z,16.06
2018-08-25T09:27:24.455Z,16.57
2018-08-25T09:29:59.093Z,16.40
2018-08-25T09:32:33.796Z,16.21
2018-08-25T09:35:08.365Z,15.94
2018-08-25T09:37:43.022Z,15.87
2018-08-25T09:40:17.633Z,15.44
2018-08-25T09:42:52.417Z,16.26
2018-08-25T09:45:27.048Z,16.69
2018-08-25T09:48:01.575Z,16.81
2018-08-25T09:50:36.283Z,16.73
2018-08-25T09:53:11.075Z,17.04
2018-08-25T09:55:45.953Z,16.96
2018-08-25T09:58:20.517Z,17.53
2018-08-25T10:01:00.492Z,17.52
2018-08-25T10:03:35.948Z,17.25
2018-08-25T10:06:10.361Z,16.98
2018-08-25T10:08:44.759Z,17.07
2018-08-25T10:11:19.248Z,17.25
2018-08-25T10:13:53.760Z,17.45
2018-08-25T10:16:28.479Z,17.85
2018-08-25T10:19:03.148Z,17.73
2018-08-25T10:21:38.048Z,17.60
2018-08-25T10:24:12.596Z,17.93
2018-08-25T10:26:47.186Z,18.26
2018-08-25T10:29:21.766Z,18.10
2018-08-25T10:31:56.244Z,18.29
2018-08-25T10:34:31.088Z,17.91
2018-08-25T10:37:05.777Z,18.34
2018-08-25T10:39:41.362Z,20.20
2018-08-25T10:42:16.057Z,19.50
2018-08-25T10:44:50.641Z,18.99
2018-08-25T10:47:25.159Z,18.88
2018-08-25T10:49:59.956Z,20.42
2018-08-25T10:52:34.580Z,21.28
2018-08-25T10:55:09.249Z,21.47
2018-08-25T10:57:44.053Z,22.54
2018-08-25T11:00:18.742Z,23.69
2018-08-25T11:02:53.357Z,24.82
2018-08-25T11:05:27.917Z,22.01
2018-08-25T11:08:02.611Z,21.52
2018-08-25T11:10:37.029Z,20.26
2018-08-25T11:13:11.488Z,20.16
2018-08-25T11:15:46.008Z,19.50
2018-08-25T11:18:20.568Z,19.69
2018-08-25T11:20:55.164Z,18.66
2018-08-25T11:23:29.808Z,18.64
2018-08-25T11:26:04.357Z,18.23
2018-08-25T11:28:42.773Z,18.93
2018-08-25T11:31:25.017Z,18.52
2018-08-25T11:33:59.616Z,18.55
2018-08-25T11:36:34.390Z,18.92
2018-08-25T11:39:10.248Z,18.87
2018-08-25T11:41:44.652Z,19.47
2018-08-25T11:44:19.261Z,19.38
2018-08-25T11:46:53.924Z,19.46
2018-08-25T11:49:28.864Z,18.96
2018-08-25T11:52:03.901Z,19.05
2018-08-25T11:54:38.432Z,19.03
2018-08-25T11:57:13.066Z,19.16
2018-08-25T11:59:47.740Z,18.51
2018-08-25T12:02:22.495Z,18.86
2018-08-25T12:04:57.069Z,19.12
2018-08-25T12:07:32.044Z,18.42
2018-08-25T12:10:06.849Z,18.82
2018-08-25T12:12:41.358Z,17.58
2018-08-25T12:15:15.889Z,17.93
2018-08-25T12:17:50.485Z,17.54
2018-08-25T12:20:25.124Z,17.15
2018-08-25T12:22:59.773Z,17.53
2018-08-25T12:25:34.310Z,18.21
2018-08-25T12:28:09.107Z,18.57
2018-08-25T12:30:44.007Z,18.52
2018-08-25T12:33:18.772Z,18.50
2018-08-25T12:35:53.413Z,19.07
2018-08-25T12:38:28.020Z,18.89
2018-08-25T12:41:02.624Z,19.20
2018-08-25T12:43:37.331Z,19.18
2018-08-25T12:46:11.772Z,18.97
2018-08-25T12:48:46.476Z,18.43
2018-08-25T12:51:21.032Z,18.31
2018-08-25T12:53:55.752Z,17.72
2018-08-25T12:56:30.324Z,17.07
2018-08-25T12:59:04.991Z,16.85
2018-08-25T13:01:39.877Z,16.46
2018-08-25T13:04:18.526Z,16.50
2018-08-25T13:06:53.257Z,16.59
2018-08-25T13:09:27.845Z,16.82
2018-08-25T13:12:02.503Z,17.28
2018-08-25T13:14:37.151Z,17.86
2018-08-25T13:17:11.704Z,17.54
2018-08-25T13:19:46.808Z,17.84
2018-08-25T13:22:21.716Z,17.34
2018-08-25T13:24:56.358Z,17.54
2018-08-25T13:27:30.968Z,18.10
2018-08-25T13:30:05.776Z,18.65
2018-08-25T13:32:40.263Z,19.02
2018-08-25T13:35:14.830Z,19.10
2018-08-25T13:37:49.353Z,18.65
2018-08-25T13:40:23.859Z,18.68
2018-08-25T13:42:58.292Z,18.59
2018-08-25T13:45:33.002Z,18.43
2018-08-25T13:48:07.568Z,18.14
2018-08-25T13:50:42.178Z,17.92
2018-08-25T13:53:16.640Z,16.14
2018-08-25T13:55:51.241Z,14.46
2018-08-25T13:58:25.773Z,14.19
2018-08-25T14:01:00.325Z,14.54
2018-08-25T14:03:41.304Z,15.18
2018-08-25T14:06:15.701Z,15.74
2018-08-25T14:08:50.353Z,15.76
2018-08-25T14:11:24.925Z,16.04
2018-08-25T14:13:59.469Z,16.12
2018-08-25T14:16:34.025Z,15.99
2018-08-25T14:19:08.637Z,16.08
2018-08-25T14:21:43.401Z,16.14
2018-08-25T14:24:28.440Z,16.15
2018-08-25T14:27:03.010Z,16.53
2018-08-25T14:29:37.627Z,16.98
2018-08-25T14:32:12.307Z,16.75
2018-08-25T14:34:46.976Z,16.68
2018-08-25T14:37:21.604Z,16.62
2018-08-25T14:39:56.393Z,17.12
2018-08-25T14:42:31.033Z,17.57
2018-08-25T14:45:05.962Z,19.18
2018-08-25T14:47:40.535Z,20.26
2018-08-25T14:50:15.196Z,21.98
2018-08-25T14:55:49.413Z,19.04
2018-08-25T14:58:24.021Z,19.02
2018-08-25T15:00:58.643Z,18.68
2018-08-25T15:03:33.021Z,18.38
2018-08-25T15:06:07.962Z,18.36
2018-08-25T15:08:42.545Z,17.92
2018-08-25T15:11:17.244Z,17.66
2018-08-25T15:13:51.904Z,17.55
2018-08-25T15:16:26.388Z,17.31
2018-08-25T15:19:01.030Z,17.07
2018-08-25T15:21:35.727Z,16.54
2018-08-25T15:24:10.413Z,16.62
2018-08-25T15:26:44.986Z,16.52
2018-08-25T15:29:19.604Z,16.52
2018-08-25T15:31:54.121Z,16.09
2018-08-25T15:34:28.604Z,16.25
2018-08-25T15:37:03.314Z,17.22
2018-08-25T15:39:37.899Z,18.01
2018-08-25T15:42:12.368Z,18.52
2018-08-25T15:44:46.990Z,19.82
2018-08-25T15:47:21.760Z,20.90
2018-08-25T15:49:57.465Z,21.31
2018-08-25T15:52:31.833Z,21.28
2018-08-25T15:55:06.921Z,21.75
2018-08-25T15:57:41.843Z,21.67
2018-08-25T16:00:16.195Z,21.04
2018-08-25T16:02:50.809Z,20.24
2018-08-25T16:05:25.967Z,20.86
2018-08-25T16:08:00.632Z,19.16
2018-08-25T16:10:35.501Z,18.50
2018-08-25T16:13:10.225Z,18.10
2018-08-25T16:15:44.910Z,17.76
2018-08-25T16:18:19.521Z,17.19
2018-08-25T16:20:54.076Z,17.21
2018-08-25T16:23:28.578Z,16.98
2018-08-25T16:26:03.739Z,17.13
2018-08-25T16:28:38.337Z,16.78
2018-08-25T16:31:12.852Z,16.44
2018-08-25T16:33:47.342Z,16.38
2018-08-25T16:36:21.876Z,16.49
2018-08-25T16:38:56.490Z,16.29
2018-08-25T16:41:31.101Z,16.47
2018-08-25T16:44:05.650Z,16.58
2018-08-25T16:46:40.197Z,16.47
2018-08-25T16:49:15.182Z,16.54
2018-08-25T16:51:49.776Z,16.55
2018-08-25T16:54:38.780Z,16.83
2018-08-25T16:57:13.207Z,16.84
2018-08-25T16:59:47.665Z,16.82
2018-08-25T17:02:22.333Z,16.94
2018-08-25T17:04:56.988Z,16.85
2018-08-25T17:07:31.482Z,16.72
2018-08-25T17:10:06.090Z,16.48
2018-08-25T17:12:40.649Z,16.30
2018-08-25T17:15:15.404Z,16.24
2018-08-25T17:17:50.336Z,16.12
2018-08-25T17:20:24.913Z,15.99
2018-08-25T17:22:59.365Z,15.97
2018-08-25T17:25:34.282Z,15.87
2018-08-25T17:34:07.249Z,15.66
2018-08-25T17:36:42.238Z,15.78
2018-08-25T17:39:16.844Z,15.66
2018-08-25T17:41:51.533Z,15.63
2018-08-25T17:44:26.064Z,15.65
2018-08-25T17:47:00.937Z,15.59
2018-08-25T17:49:35.505Z,15.63
2018-08-25T17:52:10.173Z,15.53
2018-08-25T17:54:44.733Z,15.41
2018-08-25T17:57:19.722Z,15.22
2018-08-25T17:59:54.346Z,15.26
2018-08-25T18:02:28.834Z,15.23
2018-08-25T18:05:03.503Z,15.21
2018-08-25T18:07:38.424Z,15.08
2018-08-25T18:10:12.905Z,14.86
2018-08-25T18:12:47.407Z,14.59
2018-08-25T18:15:41.121Z,14.27
2018-08-25T18:18:15.966Z,14.13
2018-08-25T18:20:50.530Z,13.95
2018-08-25T18:23:25.244Z,13.90
2018-08-25T18:25:59.809Z,13.74
2018-08-25T18:28:34.565Z,13.57
2018-08-25T18:31:09.169Z,13.50
2018-08-25T18:33:43.860Z,13.44
2018-08-25T18:36:18.831Z,13.39
2018-08-25T18:38:53.835Z,13.38
2018-08-25T18:41:28.737Z,13.33
2018-08-25T18:44:03.350Z,13.32
2018-08-25T18:46:37.809Z,13.36
2018-08-25T18:49:13.125Z,13.33
2018-08-25T18:51:47.913Z,13.37
2018-08-25T18:54:22.622Z,13.49
2018-08-25T18:56:57.373Z,13.38
2018-08-25T18:59:32.293Z,13.30
2018-08-25T19:02:07.068Z,13.24
2018-08-25T19:04:41.451Z,13.12
2018-08-25T19:07:16.021Z,13.08
2018-08-25T19:09:50.705Z,13.01
2018-08-25T19:12:25.572Z,12.88
2018-08-25T19:14:59.969Z,12.77
2018-08-25T19:17:34.673Z,12.63
2018-08-25T19:20:09.149Z,12.53
2018-08-25T19:22:43.825Z,12.42
2018-08-25T19:25:18.308Z,12.29
2018-08-25T19:27:52.914Z,12.21
2018-08-25T19:30:27.434Z,12.24
2018-08-25T19:33:02.129Z,12.23
2018-08-25T19:35:36.823Z,12.26
2018-08-25T19:38:11.208Z,12.34
2018-08-25T19:40:45.566Z,12.35
2018-08-25T19:43:20.084Z,12.35
2018-08-25T19:45:54.662Z,12.31
2018-08-25T19:48:29.810Z,12.36
2018-08-25T19:51:04.817Z,12.47
2018-08-25T19:53:39.588Z,12.29
2018-08-25T19:56:14.316Z,12.27
2018-08-25T19:58:48.891Z,12.20
2018-08-25T20:01:23.529Z,12.10
2018-08-25T20:03:58.386Z,11.97
2018-08-25T20:06:33.097Z,11.83
2018-08-25T20:09:07.929Z,11.74
2018-08-25T20:11:43.302Z,11.66
2018-08-25T20:14:17.785Z,11.60
2018-08-25T20:16:52.313Z,11.53
2018-08-25T20:19:27.144Z,11.51
2018-08-25T20:22:01.913Z,11.43
2018-08-25T20:24:36.381Z,11.42
2018-08-25T20:27:10.940Z,11.40
2018-08-25T20:29:45.757Z,11.37
2018-08-25T20:32:20.333Z,11.37
2018-08-25T20:34:54.985Z,11.32
2018-08-25T20:37:29.372Z,11.36
2018-08-25T20:40:03.813Z,11.35
2018-08-25T20:42:38.317Z,11.34
2018-08-25T20:45:12.845Z,11.32
2018-08-25T20:47:47.601Z,11.34
2018-08-25T20:50:22.405Z,11.31
2018-08-25T20:52:56.997Z,11.23
2018-08-25T20:55:31.685Z,11.22
2018-08-25T20:58:06.766Z,11.15
2018-08-25T21:00:41.498Z,11.10
2018-08-25T21:03:16.183Z,11.06
2018-08-25T21:05:50.668Z,11.02
2018-08-25T21:08:25.161Z,10.99
2018-08-25T21:11:00.101Z,10.98
2018-08-25T21:13:34.741Z,10.95
2018-08-25T21:16:09.554Z,10.96
2018-08-25T21:18:44.178Z,11.00
2018-08-25T21:21:18.760Z,10.99
2018-08-25T21:23:53.274Z,10.98
2018-08-25T21:26:28.069Z,11.00
2018-08-25T21:29:02.912Z,10.99
2018-08-25T21:31:37.501Z,10.99
2018-08-25T21:34:12.189Z,10.97
2018-08-25T21:36:46.845Z,10.97
2018-08-25T21:39:21.269Z,10.95
2018-08-25T21:41:55.773Z,10.96
2018-08-25T21:44:30.627Z,11.06
2018-08-25T21:47:16.800Z,11.09
2018-08-25T21:49:51.420Z,11.10
2018-08-25T21:52:26.037Z,11.09
2018-08-25T21:55:00.628Z,11.07
2018-08-25T21:57:35.177Z,11.06
2018-08-25T22:00:09.616Z,11.16
2018-08-25T22:02:44.136Z,11.16
2018-08-25T22:05:18.903Z,11.14
2018-08-25T22:07:53.614Z,11.13
2018-08-25T22:10:28.129Z,11.14
2018-08-25T22:13:02.813Z,11.16
2018-08-25T22:15:37.276Z,11.10
2018-08-25T22:18:11.822Z,11.08
2018-08-25T22:20:46.658Z,11.06
2018-08-25T22:23:21.194Z,11.07
2018-08-25T22:25:56.016Z,11.03
2018-08-25T22:28:30.633Z,10.99
2018-08-25T22:31:05.383Z,10.93
2018-08-25T22:36:39.526Z,10.86
2018-08-25T22:39:14.197Z,10.91
2018-08-25T22:41:48.863Z,10.88
2018-08-25T22:44:31.797Z,10.87
2018-08-25T22:47:06.212Z,10.82
2018-08-25T22:49:40.696Z,10.77
2018-08-25T22:52:15.264Z,10.76
2018-08-25T22:54:49.911Z,10.71
2018-08-25T22:57:25.037Z,10.67
2018-08-25T22:59:59.710Z,10.74
2018-08-25T23:02:34.188Z,10.84
2018-08-25T23:05:08.895Z,10.98
2018-08-25T23:07:43.289Z,11.00
2018-08-25T23:10:17.748Z,11.02
2018-08-25T23:12:52.296Z,11.10
2018-08-25T23:15:27.221Z,11.01
2018-08-25T23:18:01.821Z,10.99
2018-08-25T23:20:36.382Z,10.89
2018-08-25T23:23:10.808Z,10.91
2018-08-25T23:25:45.429Z,10.75
2018-08-25T23:28:19.833Z,10.73
2018-08-25T23:30:54.268Z,10.77
2018-08-25T23:33:29.109Z,10.85
2018-08-25T23:36:04.213Z,10.84
2018-08-25T23:38:39.026Z,10.81
2018-08-25T23:41:13.872Z,10.81
2018-08-25T23:43:49.126Z,10.81
2018-08-25T23:46:23.560Z,10.78
2018-08-25T23:48:58.360Z,10.75
2018-08-25T23:51:33.481Z,10.76
2018-08-25T23:54:08.084Z,10.76
2018-08-25T23:56:42.836Z,10.66
2018-08-25T23:59:17.533Z,10.66
